Time;durP1;ratioP1;P1;durP2;ratioP2;P2;SDS_P1;SDS_P2;PMS_P1;PMS_P2;Temp;Humidity;BMP_temperature;BMP_pressure;BME280_temperature;BME280_humidity;BME280_pressure;Samples;Min_cycle;Max_cycle;Signal;HPM_P1;HPM_P2
2023/09/07 00:01:29;;;;;;;1.27;0.85;;;18.90;99.90;;;;;;4414073;32;20066;-64
2023/09/07 00:03:55;;;;;;;0.52;0.50;;;18.90;99.90;;;;;;4414927;32;20086;-64
2023/09/07 00:06:20;;;;;;;0.60;0.60;;;18.90;99.90;;;;;;4413788;32;20122;-64
2023/09/07 00:08:46;;;;;;;0.40;0.40;;;18.90;99.90;;;;;;4413581;32;20113;-65
2023/09/07 00:11:11;;;;;;;1.33;0.82;;;18.90;99.90;;;;;;4414624;32;20086;-65
2023/09/07 00:13:37;;;;;;;0.30;0.30;;;18.80;99.90;;;;;;4413590;32;20105;-65
2023/09/07 00:16:04;;;;;;;0.68;0.57;;;18.80;99.90;;;;;;4414117;32;20136;-63
2023/09/07 00:18:30;;;;;;;1.98;0.70;;;18.70;99.90;;;;;;4411294;32;20497;-65
2023/09/07 00:20:55;;;;;;;1.12;0.70;;;18.70;99.90;;;;;;4413915;32;20321;-63
2023/09/07 00:23:21;;;;;;;0.52;0.52;;;18.70;99.90;;;;;;4412217;32;20506;-65
2023/09/07 00:25:47;;;;;;;0.55;0.50;;;18.60;99.90;;;;;;4402045;32;20061;-64
2023/09/07 00:28:13;;;;;;;2.35;0.45;;;18.60;99.90;;;;;;4414919;32;20136;-62
2023/09/07 00:30:39;;;;;;;1.05;0.95;;;18.50;99.90;;;;;;4412099;32;20453;-64
2023/09/07 00:33:05;;;;;;;0.50;0.50;;;18.50;99.90;;;;;;4413180;32;20093;-64
2023/09/07 00:35:30;;;;;;;0.62;0.57;;;18.50;99.90;;;;;;4414232;32;20066;-64
2023/09/07 00:37:56;;;;;;;0.40;0.40;;;18.60;99.90;;;;;;4413687;32;20089;-61
2023/09/07 00:40:22;;;;;;;0.95;0.50;;;18.60;99.90;;;;;;4414498;32;20073;-61
2023/09/07 00:42:47;;;;;;;0.43;0.43;;;18.70;99.90;;;;;;4410080;32;20080;-62
2023/09/07 00:45:13;;;;;;;1.33;0.57;;;18.70;99.90;;;;;;4413794;32;20135;-64
2023/09/07 00:47:39;;;;;;;0.68;0.68;;;18.60;99.90;;;;;;4411836;32;20081;-64
2023/09/07 00:50:06;;;;;;;0.32;0.32;;;18.50;99.90;;;;;;4395069;32;21121;-62
2023/09/07 00:52:32;;;;;;;0.77;0.70;;;18.40;99.90;;;;;;4396367;32;20073;-62
2023/09/07 00:54:59;;;;;;;0.82;0.70;;;18.30;99.90;;;;;;4412597;32;20536;-61
2023/09/07 00:57:25;;;;;;;3.62;0.60;;;18.30;99.90;;;;;;4397557;32;20689;-63
2023/09/07 00:59:50;;;;;;;0.52;0.52;;;18.50;99.90;;;;;;4411343;32;20089;-61
2023/09/07 01:02:16;;;;;;;0.50;0.50;;;18.50;99.90;;;;;;4396363;32;20085;-62
2023/09/07 01:04:42;;;;;;;0.65;0.65;;;18.50;99.90;;;;;;4409944;32;20085;-64
2023/09/07 01:07:20;;;;;;;0.75;0.60;;;18.50;99.90;;;;;;4410950;32;20089;-62
2023/09/07 01:09:51;;;;;;;1.40;0.93;;;18.50;99.90;;;;;;4392491;32;20086;-63
2023/09/07 01:12:17;;;;;;;1.00;0.70;;;18.50;99.90;;;;;;4411654;32;20096;-61
2023/09/07 01:14:42;;;;;;;2.10;1.20;;;18.40;99.90;;;;;;4410742;32;20497;-61
2023/09/07 01:17:10;;;;;;;3.08;0.90;;;18.40;99.90;;;;;;4413661;32;20093;-62
2023/09/07 01:19:35;;;;;;;1.58;0.85;;;18.40;99.90;;;;;;4385249;32;20132;-61
2023/09/07 01:22:03;;;;;;;0.60;0.60;;;18.30;99.90;;;;;;4410182;32;20089;-61
2023/09/07 01:24:30;;;;;;;0.40;0.40;;;18.30;99.90;;;;;;4414057;32;20057;-64
2023/09/07 01:26:57;;;;;;;2.10;0.98;;;18.30;99.90;;;;;;4395914;32;20477;-63
2023/09/07 01:29:22;;;;;;;0.40;0.40;;;18.30;99.90;;;;;;4413209;32;20436;-60
2023/09/07 01:31:48;;;;;;;0.45;0.45;;;18.30;99.90;;;;;;4396869;32;20434;-62
2023/09/07 01:34:14;;;;;;;0.47;0.47;;;18.40;99.90;;;;;;4413628;32;20120;-63
2023/09/07 01:36:40;;;;;;;0.85;0.82;;;18.40;99.90;;;;;;4385306;32;20079;-62
2023/09/07 01:39:06;;;;;;;0.65;0.65;;;18.30;99.90;;;;;;4395035;32;20512;-64
2023/09/07 01:41:33;;;;;;;0.60;0.60;;;18.30;99.90;;;;;;4411214;32;20077;-63
2023/09/07 01:43:58;;;;;;;0.73;0.47;;;18.20;99.90;;;;;;4410995;32;20069;-61
2023/09/07 01:46:24;;;;;;;1.37;0.75;;;18.20;99.90;;;;;;4412400;32;20137;-64
2023/09/07 01:48:49;;;;;;;0.68;0.50;;;18.10;99.90;;;;;;4411466;32;20077;-64
2023/09/07 01:51:15;;;;;;;1.40;0.70;;;18.10;99.90;;;;;;4412772;32;20092;-65
2023/09/07 01:53:40;;;;;;;0.62;0.62;;;18.00;99.90;;;;;;4412101;32;20081;-65
2023/09/07 01:56:06;;;;;;;0.65;0.62;;;17.90;99.90;;;;;;4410805;32;20097;-64
2023/09/07 01:58:33;;;;;;;1.70;1.08;;;17.90;99.90;;;;;;4411082;32;20078;-64
2023/09/07 02:00:59;;;;;;;4.03;0.88;;;17.90;99.90;;;;;;4408000;32;20121;-65
2023/09/07 02:03:25;;;;;;;0.62;0.60;;;18.00;99.90;;;;;;4413525;32;20081;-66
2023/09/07 02:05:52;;;;;;;1.55;0.50;;;17.90;99.90;;;;;;4415369;32;20080;-65
2023/09/07 02:08:17;;;;;;;0.50;0.50;;;17.90;99.90;;;;;;4414118;32;20061;-63
2023/09/07 02:10:42;;;;;;;1.00;0.57;;;17.90;99.90;;;;;;4414255;32;20564;-65
2023/09/07 02:13:08;;;;;;;0.45;0.45;;;17.90;99.90;;;;;;4412712;32;20168;-65
2023/09/07 02:15:38;;;;;;;0.40;0.40;;;17.90;99.90;;;;;;4412877;32;20066;-63
2023/09/07 02:18:04;;;;;;;0.62;0.62;;;17.90;99.90;;;;;;4412664;32;20600;-65
2023/09/07 02:20:30;;;;;;;0.50;0.50;;;17.90;99.90;;;;;;4413721;32;20442;-65
2023/09/07 02:22:55;;;;;;;2.33;1.00;;;17.80;99.90;;;;;;4412916;32;20120;-63
2023/09/07 02:25:21;;;;;;;0.50;0.50;;;17.90;99.90;;;;;;4413368;32;20057;-65
2023/09/07 02:27:47;;;;;;;0.60;0.60;;;17.80;99.90;;;;;;4411628;32;20140;-62
2023/09/07 02:30:12;;;;;;;0.88;0.68;;;17.80;99.90;;;;;;4412458;32;20074;-65
2023/09/07 02:32:38;;;;;;;0.85;0.80;;;17.80;99.90;;;;;;4412239;32;20081;-65
2023/09/07 02:35:04;;;;;;;0.93;0.55;;;17.70;99.90;;;;;;4415520;32;20065;-65
2023/09/07 02:37:29;;;;;;;0.60;0.60;;;17.80;99.90;;;;;;4411142;32;20084;-62
2023/09/07 02:39:55;;;;;;;0.70;0.70;;;17.80;99.90;;;;;;4413220;32;20058;-61
2023/09/07 02:42:20;;;;;;;0.45;0.40;;;17.80;99.90;;;;;;4411466;32;20093;-65
2023/09/07 02:44:46;;;;;;;0.52;0.52;;;17.80;99.90;;;;;;4413274;32;20462;-64
2023/09/07 02:47:11;;;;;;;0.52;0.52;;;17.90;99.90;;;;;;4410550;32;20094;-65
2023/09/07 02:49:37;;;;;;;0.80;0.80;;;17.90;99.90;;;;;;4413146;32;20135;-64
2023/09/07 02:52:02;;;;;;;0.77;0.60;;;17.80;99.90;;;;;;4412220;32;20062;-66
2023/09/07 02:54:29;;;;;;;0.77;0.77;;;17.80;99.90;;;;;;4417233;32;20146;-65
2023/09/07 02:56:54;;;;;;;0.60;0.60;;;17.70;99.90;;;;;;4416628;32;20101;-64
2023/09/07 02:59:20;;;;;;;3.70;0.60;;;17.70;99.90;;;;;;4417980;32;20089;-64
2023/09/07 03:01:45;;;;;;;0.82;0.70;;;17.70;99.90;;;;;;4398406;32;20094;-62
2023/09/07 03:04:11;;;;;;;0.35;0.35;;;17.70;99.90;;;;;;4416663;32;20544;-64
2023/09/07 03:06:36;;;;;;;0.73;0.73;;;17.70;99.90;;;;;;4402870;32;20162;-64
2023/09/07 03:09:02;;;;;;;0.50;0.50;;;17.70;99.90;;;;;;4419446;32;20054;-64
2023/09/07 03:11:33;;;;;;;0.68;0.68;;;17.70;99.90;;;;;;4414133;32;20184;-64
2023/09/07 03:13:58;;;;;;;0.88;0.88;;;17.70;99.90;;;;;;4416850;32;20061;-64
2023/09/07 03:16:24;;;;;;;1.05;0.80;;;17.60;99.90;;;;;;4416570;32;20561;-64
2023/09/07 03:18:49;;;;;;;1.92;1.00;;;17.50;99.90;;;;;;4414947;32;20173;-64
2023/09/07 03:21:15;;;;;;;3.10;0.80;;;17.50;99.90;;;;;;4412636;32;20089;-64
2023/09/07 03:23:44;;;;;;;0.40;0.40;;;17.50;99.90;;;;;;4418824;32;20053;-64
2023/09/07 03:26:09;;;;;;;0.57;0.57;;;17.50;99.90;;;;;;4414111;32;20085;-63
2023/09/07 03:28:35;;;;;;;0.65;0.65;;;17.50;99.90;;;;;;4415744;32;20537;-64
2023/09/07 03:31:00;;;;;;;0.68;0.50;;;17.50;99.90;;;;;;4414099;32;20135;-64
2023/09/07 03:33:25;;;;;;;1.85;0.70;;;17.50;99.90;;;;;;4414395;32;20073;-64
2023/09/07 03:35:51;;;;;;;0.62;0.62;;;17.40;99.90;;;;;;4414280;32;20069;-64
2023/09/07 03:38:17;;;;;;;1.25;0.85;;;17.40;99.90;;;;;;4415691;32;20565;-64
2023/09/07 03:40:43;;;;;;;0.47;0.47;;;17.40;99.90;;;;;;4417495;32;20469;-65
2023/09/07 03:43:09;;;;;;;3.72;0.82;;;17.30;99.90;;;;;;4414958;32;20529;-64
2023/09/07 03:45:34;;;;;;;0.57;0.57;;;17.30;99.90;;;;;;4419377;32;20132;-64
2023/09/07 03:47:59;;;;;;;2.42;0.50;;;17.30;99.90;;;;;;4414755;32;20675;-64
2023/09/07 03:50:25;;;;;;;1.08;0.82;;;17.30;99.90;;;;;;4414110;32;20084;-63
2023/09/07 03:52:50;;;;;;;0.55;0.55;;;17.30;99.90;;;;;;4413628;32;20090;-64
2023/09/07 03:55:16;;;;;;;4.10;1.37;;;17.30;99.90;;;;;;4414482;32;20196;-64
2023/09/07 03:57:41;;;;;;;0.65;0.60;;;17.30;99.90;;;;;;4415107;32;20194;-63
2023/09/07 04:00:08;;;;;;;35.80;1.62;;;17.30;99.90;;;;;;4412147;32;20061;-64
2023/09/07 04:02:34;;;;;;;0.75;0.62;;;17.20;99.90;;;;;;4413848;32;20086;-64
2023/09/07 04:05:02;;;;;;;2.53;1.20;;;17.30;99.90;;;;;;4414271;32;20097;-65
2023/09/07 04:07:27;;;;;;;4.80;2.03;;;17.30;99.90;;;;;;4415547;32;20065;-64
2023/09/07 04:09:53;;;;;;;0.57;0.57;;;17.20;99.90;;;;;;4418563;32;20127;-65
2023/09/07 04:12:18;;;;;;;0.45;0.45;;;17.20;99.90;;;;;;4416259;32;20057;-66
2023/09/07 04:14:44;;;;;;;0.57;0.57;;;17.10;99.90;;;;;;4398617;32;20092;-65
2023/09/07 04:17:10;;;;;;;0.52;0.47;;;17.10;99.90;;;;;;4413801;32;20151;-64
2023/09/07 04:19:35;;;;;;;4.45;0.70;;;17.20;99.90;;;;;;4411815;32;20077;-65
2023/09/07 04:22:01;;;;;;;0.60;0.60;;;17.20;99.90;;;;;;4407468;32;20089;-65
2023/09/07 04:24:27;;;;;;;0.50;0.50;;;17.20;99.90;;;;;;4416421;32;20093;-65
2023/09/07 04:26:53;;;;;;;0.68;0.68;;;17.30;99.90;;;;;;4410984;32;20453;-64
2023/09/07 04:29:20;;;;;;;0.50;0.50;;;17.30;99.90;;;;;;4415134;32;20154;-65
2023/09/07 04:31:45;;;;;;;0.60;0.60;;;17.20;99.90;;;;;;4414950;32;20073;-65
2023/09/07 04:34:11;;;;;;;1.65;1.37;;;17.20;99.90;;;;;;4414667;32;20130;-64
2023/09/07 04:36:36;;;;;;;0.50;0.50;;;17.10;99.90;;;;;;4413749;32;20082;-65
2023/09/07 04:39:03;;;;;;;0.47;0.47;;;17.10;99.90;;;;;;4414448;32;20083;-62
2023/09/07 04:41:29;;;;;;;0.77;0.77;;;17.10;99.90;;;;;;4414556;32;20069;-64
2023/09/07 04:43:54;;;;;;;1.75;0.82;;;17.20;99.90;;;;;;4397379;32;20121;-65
2023/09/07 04:46:22;;;;;;;6.18;2.10;;;17.10;99.90;;;;;;4411757;32;20334;-65
2023/09/07 04:48:48;;;;;;;1.02;0.88;;;17.10;99.90;;;;;;4410997;32;20580;-65
2023/09/07 04:51:13;;;;;;;15.02;0.93;;;17.20;99.90;;;;;;4410147;32;20086;-63
2023/09/07 04:53:39;;;;;;;0.73;0.73;;;17.20;99.90;;;;;;4413665;32;20124;-65
2023/09/07 04:56:06;;;;;;;0.30;0.30;;;17.20;99.90;;;;;;4412565;32;20487;-64
2023/09/07 04:58:32;;;;;;;0.60;0.60;;;17.20;99.90;;;;;;4414350;32;20132;-64
2023/09/07 05:01:06;;;;;;;0.82;0.70;;;17.20;99.90;;;;;;4406850;32;20065;-64
2023/09/07 05:03:33;;;;;;;0.68;0.68;;;17.20;99.90;;;;;;4409298;32;20084;-64
2023/09/07 05:05:59;;;;;;;1.15;1.00;;;17.30;99.90;;;;;;4409462;32;20089;-65
2023/09/07 05:08:25;;;;;;;1.10;0.82;;;17.30;99.90;;;;;;4408686;32;20165;-65
2023/09/07 05:10:56;;;;;;;0.47;0.47;;;17.40;99.90;;;;;;4410515;32;20140;-63
2023/09/07 05:13:22;;;;;;;0.73;0.50;;;17.40;99.90;;;;;;4408108;32;20101;-64
2023/09/07 05:15:49;;;;;;;0.75;0.60;;;17.40;99.90;;;;;;4413685;32;20540;-62
2023/09/07 05:18:14;;;;;;;0.40;0.40;;;17.50;99.90;;;;;;4383512;32;20061;-60
2023/09/07 05:20:40;;;;;;;1.35;0.68;;;17.40;99.90;;;;;;4408686;32;20202;-62
2023/09/07 05:23:05;;;;;;;0.90;0.77;;;17.50;99.90;;;;;;4405056;32;20101;-63
2023/09/07 05:25:31;;;;;;;0.93;0.88;;;17.50;99.90;;;;;;4406667;32;20217;-63
2023/09/07 05:27:56;;;;;;;0.30;0.30;;;17.60;99.90;;;;;;4394875;32;20425;-63
2023/09/07 05:30:22;;;;;;;1.17;0.70;;;17.80;99.90;;;;;;4391354;32;20072;-63
2023/09/07 05:32:47;;;;;;;1.37;0.90;;;17.70;99.90;;;;;;4392603;32;20399;-62
2023/09/07 05:35:15;;;;;;;0.75;0.75;;;17.70;99.90;;;;;;4400177;32;20466;-62
2023/09/07 05:37:41;;;;;;;9.95;1.05;;;17.90;99.90;;;;;;4401753;32;20106;-62
2023/09/07 05:40:17;;;;;;;0.55;0.55;;;17.90;99.90;;;;;;4404698;32;20084;-62
2023/09/07 05:42:46;;;;;;;0.65;0.65;;;18.00;99.90;;;;;;4402474;32;20585;-61
2023/09/07 05:45:11;;;;;;;2.45;0.75;;;18.00;99.90;;;;;;4382481;32;20842;-60
2023/09/07 05:47:38;;;;;;;0.57;0.57;;;18.10;99.90;;;;;;4385075;32;20117;-63
2023/09/07 05:50:04;;;;;;;1.70;1.10;;;18.10;99.90;;;;;;4397502;32;20431;-62
2023/09/07 05:52:30;;;;;;;1.08;0.90;;;18.20;99.90;;;;;;4389889;32;20092;-63
2023/09/07 05:54:56;;;;;;;0.70;0.50;;;18.30;99.90;;;;;;4371189;32;20596;-63
2023/09/07 05:57:21;;;;;;;0.52;0.52;;;18.30;99.90;;;;;;4380538;32;20569;-64
2023/09/07 05:59:48;;;;;;;0.43;0.43;;;18.40;99.90;;;;;;4371818;32;20853;-64
2023/09/07 06:02:13;;;;;;;0.50;0.50;;;18.50;99.90;;;;;;4366350;32;20576;-61
2023/09/07 06:04:39;;;;;;;0.60;0.50;;;18.50;99.90;;;;;;4375144;32;20253;-63
2023/09/07 06:07:04;;;;;;;0.70;0.70;;;18.60;99.90;;;;;;4378507;32;20187;-63
2023/09/07 06:09:30;;;;;;;2.97;1.55;;;18.60;99.90;;;;;;4379150;32;20857;-64
2023/09/07 06:11:55;;;;;;;0.47;0.47;;;18.70;99.90;;;;;;4372764;32;20924;-64
2023/09/07 06:14:21;;;;;;;0.98;0.65;;;18.80;99.90;;;;;;4378801;32;20239;-63
2023/09/07 06:16:46;;;;;;;0.60;0.60;;;18.80;99.90;;;;;;4378154;32;20105;-65
2023/09/07 06:19:11;;;;;;;0.50;0.50;;;18.80;99.90;;;;;;4381095;32;20261;-64
2023/09/07 06:21:37;;;;;;;0.90;0.57;;;18.90;99.90;;;;;;4377511;32;21833;-63
2023/09/07 06:24:03;;;;;;;0.90;0.82;;;19.00;99.90;;;;;;4383803;32;20085;-64
2023/09/07 06:26:28;;;;;;;1.05;0.82;;;19.10;99.90;;;;;;4386160;32;20770;-63
2023/09/07 06:28:54;;;;;;;2.62;1.48;;;19.10;99.90;;;;;;4392464;32;20065;-63
2023/09/07 06:31:19;;;;;;;0.65;0.65;;;19.20;99.90;;;;;;4374914;32;20923;-64
2023/09/07 06:33:45;;;;;;;0.55;0.55;;;19.30;99.90;;;;;;4394863;32;20113;-65
2023/09/07 06:36:10;;;;;;;6.47;1.73;;;19.30;99.90;;;;;;4389330;32;25071;-65
2023/09/07 06:38:36;;;;;;;0.47;0.47;;;19.40;99.90;;;;;;4391663;32;20105;-65
2023/09/07 06:41:01;;;;;;;0.45;0.45;;;19.40;99.90;;;;;;4395180;32;21644;-62
2023/09/07 06:43:27;;;;;;;0.55;0.55;;;19.50;99.90;;;;;;4391019;32;20686;-65
2023/09/07 06:45:52;;;;;;;0.77;0.77;;;19.50;99.90;;;;;;4385812;32;20364;-64
2023/09/07 06:48:18;;;;;;;0.50;0.50;;;19.60;99.90;;;;;;4388620;32;20709;-65
2023/09/07 06:50:43;;;;;;;0.60;0.60;;;19.70;99.90;;;;;;4391467;32;20092;-62
2023/09/07 06:53:09;;;;;;;0.30;0.30;;;19.80;99.90;;;;;;4393041;32;20081;-61
2023/09/07 06:55:34;;;;;;;1.40;0.60;;;19.90;99.90;;;;;;4381278;32;20105;-63
2023/09/07 06:58:01;;;;;;;6.22;0.95;;;20.00;99.90;;;;;;4392396;32;20088;-63
2023/09/07 07:00:27;;;;;;;0.68;0.68;;;20.10;99.90;;;;;;4390439;32;20073;-63
2023/09/07 07:02:52;;;;;;;0.40;0.40;;;20.20;99.90;;;;;;4388734;32;20105;-63
2023/09/07 07:05:18;;;;;;;0.65;0.65;;;20.20;99.90;;;;;;4389201;32;20097;-64
2023/09/07 07:07:44;;;;;;;0.88;0.85;;;20.30;99.90;;;;;;4380363;32;20490;-64
2023/09/07 07:10:09;;;;;;;0.47;0.47;;;20.40;99.90;;;;;;4391142;32;21812;-63
2023/09/07 07:12:35;;;;;;;1.67;1.10;;;20.40;99.90;;;;;;4388043;32;20097;-65
2023/09/07 07:15:02;;;;;;;0.70;0.70;;;20.40;99.90;;;;;;4389792;32;21229;-63
2023/09/07 07:17:27;;;;;;;1.55;0.50;;;20.50;99.90;;;;;;4393736;32;20112;-64
2023/09/07 07:19:53;;;;;;;0.50;0.50;;;20.50;99.90;;;;;;4395757;32;20804;-62
2023/09/07 07:22:19;;;;;;;0.37;0.37;;;20.60;99.90;;;;;;4390792;32;20086;-62
2023/09/07 07:24:44;;;;;;;0.70;0.70;;;20.60;99.90;;;;;;4398913;32;20154;-63
2023/09/07 07:27:10;;;;;;;0.93;0.75;;;20.70;99.90;;;;;;4390525;32;20089;-63
2023/09/07 07:29:37;;;;;;;0.40;0.40;;;20.80;99.90;;;;;;4390415;32;20092;-63
2023/09/07 07:32:03;;;;;;;1.10;0.88;;;20.90;99.90;;;;;;4364534;32;21079;-64
2023/09/07 07:34:29;;;;;;;1.02;0.70;;;20.90;99.90;;;;;;4367946;32;20558;-64
2023/09/07 07:36:54;;;;;;;1.92;0.52;;;21.00;99.90;;;;;;4394084;32;20093;-61
2023/09/07 07:39:20;;;;;;;0.30;0.30;;;21.00;99.90;;;;;;4389346;32;20085;-63
2023/09/07 07:41:46;;;;;;;1.23;0.57;;;21.20;99.90;;;;;;4371520;32;20141;-63
2023/09/07 07:44:12;;;;;;;1.70;1.58;;;21.20;99.90;;;;;;4377528;32;20089;-60
2023/09/07 07:46:38;;;;;;;3.75;1.52;;;21.30;99.90;;;;;;4387050;32;20077;-63
2023/09/07 07:49:03;;;;;;;0.75;0.60;;;21.40;99.90;;;;;;4377868;32;20122;-63
2023/09/07 07:51:29;;;;;;;1.10;0.80;;;21.50;99.90;;;;;;4376962;32;21615;-61
2023/09/07 07:53:56;;;;;;;1.55;0.40;;;21.60;99.90;;;;;;4381929;32;20102;-63
2023/09/07 07:56:22;;;;;;;0.57;0.50;;;21.60;99.90;;;;;;4378980;32;20450;-63
2023/09/07 07:58:48;;;;;;;0.37;0.37;;;21.70;99.90;;;;;;4390026;32;20089;-63
2023/09/07 08:01:16;;;;;;;0.22;0.22;;;21.80;99.90;;;;;;4382572;32;20882;-64
2023/09/07 08:03:41;;;;;;;0.88;0.73;;;21.90;99.90;;;;;;4373154;32;20835;-63
2023/09/07 08:06:07;;;;;;;1.30;1.00;;;22.00;99.90;;;;;;4388305;32;20097;-63
2023/09/07 08:08:32;;;;;;;0.85;0.80;;;22.10;99.90;;;;;;4376799;32;20089;-63
2023/09/07 08:11:00;;;;;;;0.85;0.80;;;22.10;99.90;;;;;;4376545;32;20110;-63
2023/09/07 08:13:25;;;;;;;0.55;0.50;;;22.20;99.90;;;;;;4374925;32;20961;-63
2023/09/07 08:15:51;;;;;;;0.40;0.40;;;22.30;99.90;;;;;;4386640;32;20151;-64
2023/09/07 08:18:16;;;;;;;0.50;0.50;;;22.40;99.90;;;;;;4377554;32;20077;-64
2023/09/07 08:20:42;;;;;;;5.78;1.62;;;22.60;99.90;;;;;;4393662;32;21135;-63
2023/09/07 08:23:09;;;;;;;1.55;0.70;;;22.70;99.90;;;;;;4384025;32;20215;-64
2023/09/07 08:25:35;;;;;;;5.12;0.90;;;22.80;99.90;;;;;;4386512;32;20206;-65
2023/09/07 08:28:04;;;;;;;0.50;0.50;;;22.90;99.90;;;;;;4387788;32;20857;-65
2023/09/07 08:30:30;;;;;;;0.77;0.73;;;23.00;99.90;;;;;;4374095;32;20819;-64
2023/09/07 08:32:56;;;;;;;1.55;0.82;;;23.10;99.90;;;;;;4379694;32;20854;-64
2023/09/07 08:35:26;;;;;;;0.50;0.50;;;23.20;99.90;;;;;;4381973;32;20417;-63
2023/09/07 08:37:53;;;;;;;1.00;0.60;;;23.30;99.90;;;;;;4390914;32;20381;-64
2023/09/07 08:40:20;;;;;;;2.42;0.57;;;23.30;99.90;;;;;;4362724;32;20137;-64
2023/09/07 08:42:46;;;;;;;2.97;0.85;;;23.50;99.90;;;;;;4364323;32;20758;-63
2023/09/07 08:45:20;;;;;;;0.30;0.30;;;23.50;99.90;;;;;;4384940;32;20367;-61
2023/09/07 08:47:46;;;;;;;1.52;0.88;;;23.60;99.90;;;;;;4372014;32;20113;-64
2023/09/07 08:50:13;;;;;;;0.93;0.70;;;23.80;99.90;;;;;;4390068;32;20081;-63
2023/09/07 08:52:39;;;;;;;0.60;0.60;;;23.80;99.90;;;;;;4384717;32;20425;-64
2023/09/07 08:55:05;;;;;;;2.72;1.35;;;23.90;99.90;;;;;;4389021;32;20118;-62
2023/09/07 08:57:32;;;;;;;0.50;0.50;;;24.10;99.90;;;;;;4389994;32;20073;-65
2023/09/07 08:59:57;;;;;;;0.68;0.68;;;24.20;99.90;;;;;;4374068;32;20122;-63
2023/09/07 09:02:23;;;;;;;0.60;0.60;;;24.30;99.90;;;;;;4366634;32;20121;-63
2023/09/07 09:04:49;;;;;;;0.55;0.32;;;24.30;99.90;;;;;;4386300;32;20174;-64
2023/09/07 09:07:15;;;;;;;0.50;0.50;;;24.50;99.90;;;;;;4385585;32;20088;-64
2023/09/07 09:09:40;;;;;;;0.40;0.40;;;24.60;99.90;;;;;;4384669;32;21029;-63
2023/09/07 09:12:08;;;;;;;0.57;0.55;;;24.70;99.90;;;;;;4389432;32;20085;-64
2023/09/07 09:14:33;;;;;;;0.37;0.37;;;24.90;99.90;;;;;;4366139;32;21162;-62
2023/09/07 09:16:58;;;;;;;0.40;0.40;;;25.00;99.90;;;;;;4373737;32;20126;-63
2023/09/07 09:19:33;;;;;;;0.30;0.30;;;25.20;99.90;;;;;;4375422;32;20142;-64
2023/09/07 09:21:58;;;;;;;3.50;0.98;;;25.30;99.90;;;;;;4369790;32;20109;-64
2023/09/07 09:24:24;;;;;;;2.00;0.57;;;25.50;99.90;;;;;;4346903;32;20533;-64
2023/09/07 09:26:50;;;;;;;0.65;0.65;;;25.60;99.90;;;;;;4360436;32;20436;-65
2023/09/07 09:29:21;;;;;;;1.27;0.60;;;25.70;99.90;;;;;;4357646;32;20714;-64
2023/09/07 09:31:46;;;;;;;0.60;0.60;;;25.90;99.90;;;;;;4370880;32;20899;-63
2023/09/07 09:34:12;;;;;;;2.83;1.52;;;26.00;99.90;;;;;;4369747;32;20111;-63
2023/09/07 09:36:41;;;;;;;0.45;0.40;;;26.10;99.90;;;;;;4378713;32;20298;-63
2023/09/07 09:39:06;;;;;;;0.20;0.20;;;26.20;99.90;;;;;;4377053;32;20817;-64
2023/09/07 09:41:33;;;;;;;0.40;0.40;;;26.30;99.90;;;;;;4382632;32;20153;-64
2023/09/07 09:44:00;;;;;;;0.40;0.40;;;26.40;99.90;;;;;;4370238;32;20126;-64
2023/09/07 09:46:27;;;;;;;0.30;0.30;;;26.50;99.90;;;;;;4382984;32;20088;-61
2023/09/07 09:48:54;;;;;;;0.52;0.52;;;26.60;99.80;;;;;;4391052;32;20086;-65
2023/09/07 09:51:20;;;;;;;0.30;0.30;;;26.60;99.90;;;;;;4381781;32;20259;-64
2023/09/07 09:53:46;;;;;;;0.98;0.30;;;26.60;99.60;;;;;;4363891;32;20379;-63
2023/09/07 09:56:12;;;;;;;0.20;0.20;;;26.70;99.90;;;;;;4394379;32;21550;-64
2023/09/07 09:58:38;;;;;;;0.45;0.45;;;26.90;99.40;;;;;;4381985;32;20410;-63
2023/09/07 10:01:05;;;;;;;0.50;0.50;;;27.00;99.50;;;;;;4369554;32;20932;-64
2023/09/07 10:03:34;;;;;;;0.50;0.50;;;27.10;98.60;;;;;;4392468;32;20415;-64
2023/09/07 10:06:08;;;;;;;1.15;0.85;;;27.10;98.60;;;;;;4387196;32;20911;-64
2023/09/07 10:08:34;;;;;;;0.65;0.40;;;27.20;98.50;;;;;;4394585;32;20088;-64
2023/09/07 10:10:59;;;;;;;0.20;0.20;;;27.30;98.70;;;;;;4398350;32;20097;-63
2023/09/07 10:13:30;;;;;;;2.05;0.98;;;27.50;98.10;;;;;;4382055;32;20608;-65
2023/09/07 10:16:07;;;;;;;0.43;0.43;;;27.70;97.80;;;;;;4391513;32;20429;-64
2023/09/07 10:18:35;;;;;;;5.53;0.40;;;27.90;97.30;;;;;;4368735;32;20094;-64
2023/09/07 10:21:02;;;;;;;0.22;0.22;;;28.00;96.90;;;;;;4380253;32;21049;-64
2023/09/07 10:23:45;;;;;;;0.20;0.20;;;28.10;97.10;;;;;;4376756;32;20186;-65
2023/09/07 10:26:14;;;;;;;0.35;0.35;;;28.20;96.50;;;;;;4380895;32;20226;-65
2023/09/07 10:28:39;;;;;;;0.40;0.40;;;28.30;97.00;;;;;;4381942;32;20105;-65
2023/09/07 10:31:12;;;;;;;0.28;0.28;;;28.40;96.70;;;;;;4399787;32;20648;-65
2023/09/07 10:33:38;;;;;;;0.20;0.20;;;28.60;95.40;;;;;;4398228;32;20097;-64
2023/09/07 10:36:06;;;;;;;0.32;0.32;;;28.60;95.20;;;;;;4398293;32;20778;-65
2023/09/07 10:38:33;;;;;;;0.70;0.52;;;28.80;94.40;;;;;;4386803;32;20096;-64
2023/09/07 10:41:01;;;;;;;0.65;0.65;;;28.80;94.40;;;;;;4398999;32;20109;-65
2023/09/07 10:43:30;;;;;;;0.47;0.45;;;28.80;93.90;;;;;;4380848;32;20109;-66
2023/09/07 10:45:56;;;;;;;0.35;0.35;;;28.80;92.10;;;;;;4383472;32;20073;-65
2023/09/07 10:48:23;;;;;;;1.10;0.52;;;28.90;92.00;;;;;;4396038;32;20096;-66
2023/09/07 10:50:49;;;;;;;0.45;0.17;;;29.10;92.50;;;;;;4400766;32;20093;-65
2023/09/07 10:53:15;;;;;;;0.40;0.35;;;29.40;92.00;;;;;;4380352;32;20137;-65
2023/09/07 10:55:43;;;;;;;0.50;0.50;;;29.70;91.40;;;;;;4399119;32;20097;-65
2023/09/07 10:58:10;;;;;;;0.28;0.28;;;29.90;90.50;;;;;;4391782;32;20098;-63
2023/09/07 11:00:36;;;;;;;1.08;0.85;;;29.80;89.50;;;;;;4390834;32;20093;-63
2023/09/07 11:03:10;;;;;;;0.28;0.28;;;29.80;89.50;;;;;;4390192;32;21219;-61
2023/09/07 11:05:37;;;;;;;2.05;0.57;;;29.80;88.90;;;;;;4412437;32;20081;-63
2023/09/07 11:08:04;;;;;;;0.30;0.30;;;30.00;90.00;;;;;;4392753;32;20080;-64
2023/09/07 11:10:34;;;;;;;0.40;0.40;;;30.20;88.80;;;;;;4386226;32;20185;-65
2023/09/07 11:13:05;;;;;;;0.32;0.32;;;30.50;88.20;;;;;;4398833;32;20918;-64
2023/09/07 11:15:33;;;;;;;0.73;0.50;;;30.70;88.60;;;;;;4387954;32;20092;-63
2023/09/07 11:18:04;;;;;;;0.30;0.30;;;30.80;87.70;;;;;;4400462;32;20105;-62
2023/09/07 11:20:29;;;;;;;0.30;0.30;;;30.80;87.30;;;;;;4411870;32;20109;-64
2023/09/07 11:22:55;;;;;;;0.95;0.35;;;30.80;85.50;;;;;;4409566;32;20848;-63
2023/09/07 11:25:21;;;;;;;0.70;0.20;;;30.80;86.20;;;;;;4404176;32;20086;-64
2023/09/07 11:27:46;;;;;;;0.50;0.50;;;31.10;84.90;;;;;;4386826;32;20134;-65
2023/09/07 11:30:12;;;;;;;1.20;0.22;;;31.00;85.10;;;;;;4404243;32;20078;-63
2023/09/07 11:32:38;;;;;;;0.28;0.20;;;31.20;86.80;;;;;;4400883;32;20217;-63
2023/09/07 11:35:07;;;;;;;0.30;0.30;;;31.30;83.70;;;;;;4399125;32;20889;-63
2023/09/07 11:37:33;;;;;;;0.17;0.17;;;31.30;82.40;;;;;;4401867;32;20139;-63
2023/09/07 11:39:58;;;;;;;0.15;0.15;;;31.40;81.00;;;;;;4397423;32;21041;-63
2023/09/07 11:42:24;;;;;;;0.15;0.15;;;31.60;81.10;;;;;;4390955;32;20101;-65
2023/09/07 11:44:49;;;;;;;0.55;0.40;;;31.70;80.00;;;;;;4386732;32;20820;-63
2023/09/07 11:47:16;;;;;;;0.20;0.20;;;31.90;79.70;;;;;;4392180;32;92019;-65
2023/09/07 11:49:41;;;;;;;0.15;0.15;;;32.10;78.90;;;;;;4383177;32;20617;-63
2023/09/07 11:52:07;;;;;;;0.25;0.25;;;32.40;78.60;;;;;;4374882;32;20093;-64
2023/09/07 11:54:33;;;;;;;0.20;0.20;;;32.40;79.50;;;;;;4405140;32;20523;-64
2023/09/07 11:56:58;;;;;;;6.75;0.93;;;32.70;77.10;;;;;;4406713;32;20082;-63
2023/09/07 11:59:24;;;;;;;0.10;0.10;;;32.70;77.20;;;;;;4407901;32;20073;-65
2023/09/07 12:01:49;;;;;;;0.20;0.20;;;33.10;77.10;;;;;;4409864;32;20207;-63
2023/09/07 12:04:15;;;;;;;1.75;1.12;;;33.40;75.50;;;;;;4407425;32;20049;-64
2023/09/07 12:06:40;;;;;;;0.20;0.20;;;33.40;76.10;;;;;;4409175;32;20082;-64
2023/09/07 12:09:07;;;;;;;0.10;0.10;;;33.60;74.30;;;;;;4402554;32;20228;-64
2023/09/07 12:11:33;;;;;;;0.10;0.10;;;33.50;73.20;;;;;;4378655;32;20505;-64
2023/09/07 12:13:59;;;;;;;0.30;0.30;;;33.80;73.20;;;;;;4383200;32;21131;-63
2023/09/07 12:16:26;;;;;;;0.28;0.28;;;34.00;72.90;;;;;;4407555;32;20081;-65
2023/09/07 12:18:51;;;;;;;1.35;0.40;;;34.20;70.80;;;;;;4408611;32;20097;-65
2023/09/07 12:21:17;;;;;;;0.25;0.20;;;34.30;71.20;;;;;;4410570;32;20080;-64
2023/09/07 12:23:43;;;;;;;0.28;0.28;;;34.50;70.70;;;;;;4401622;32;20078;-64
2023/09/07 12:26:08;;;;;;;0.30;0.30;;;34.60;69.50;;;;;;4420200;32;20103;-64
2023/09/07 12:28:34;;;;;;;0.28;0.28;;;34.20;70.00;;;;;;4419539;32;20077;-67
2023/09/07 12:30:59;;;;;;;0.55;0.37;;;34.10;69.20;;;;;;4407129;32;20112;-66
2023/09/07 12:33:25;;;;;;;0.40;0.32;;;34.50;69.90;;;;;;4420892;32;20077;-65
2023/09/07 12:35:51;;;;;;;0.30;0.30;;;34.90;68.70;;;;;;4411122;32;20136;-66
2023/09/07 12:38:19;;;;;;;1.08;0.50;;;35.20;66.40;;;;;;4389469;32;20062;-67
2023/09/07 12:40:45;;;;;;;0.30;0.30;;;34.90;66.50;;;;;;4400152;32;20097;-67
2023/09/07 12:43:10;;;;;;;0.37;0.37;;;34.90;67.00;;;;;;4391175;32;20698;-67